createdAt,value
2022-08-29T00:00:04.334Z,971.55
2022-08-29T00:01:05.331Z,971.53
2022-08-29T00:02:04.923Z,971.55
2022-08-29T00:03:08.961Z,971.56
2022-08-29T00:04:06.643Z,971.55
2022-08-29T00:05:05.828Z,971.56
2022-08-29T00:06:06.068Z,971.54
2022-08-29T00:07:06.308Z,971.52
2022-08-29T00:08:06.557Z,971.56
2022-08-29T00:09:08.409Z,971.52
2022-08-29T00:10:07.100Z,971.54
2022-08-29T00:11:07.343Z,971.55
2022-08-29T00:12:07.579Z,971.53
2022-08-29T00:13:07.820Z,971.53
2022-08-29T00:14:08.060Z,971.50
2022-08-29T00:15:09.310Z,971.52
2022-08-29T00:16:08.651Z,971.50
2022-08-29T00:17:08.901Z,971.49
2022-08-29T00:18:09.141Z,971.46
2022-08-29T00:19:09.383Z,971.46
2022-08-29T00:20:09.633Z,971.44
2022-08-29T00:21:09.883Z,971.41
2022-08-29T00:22:10.124Z,971.43
2022-08-29T00:23:10.373Z,971.43
2022-08-29T00:24:10.632Z,971.41
2022-08-29T00:25:11.676Z,971.43
2022-08-29T00:26:11.115Z,971.45
2022-08-29T00:27:11.371Z,971.45
2022-08-29T00:28:11.615Z,971.45
2022-08-29T00:29:11.855Z,971.46
2022-08-29T00:30:13.716Z,971.46
2022-08-29T00:31:12.453Z,971.44
2022-08-29T00:32:12.684Z,971.44
2022-08-29T00:33:12.927Z,971.42
2022-08-29T00:34:13.180Z,971.47
2022-08-29T00:35:13.418Z,971.46
2022-08-29T00:36:14.509Z,971.45
2022-08-29T00:37:13.939Z,971.48
2022-08-29T00:38:14.331Z,971.43
2022-08-29T00:39:14.540Z,971.48
2022-08-29T00:40:14.823Z,971.43
2022-08-29T00:41:15.951Z,971.44
2022-08-29T00:42:15.381Z,971.41
2022-08-29T00:43:15.632Z,971.47
2022-08-29T00:44:15.873Z,971.42
2022-08-29T00:45:16.112Z,971.38
2022-08-29T00:46:16.451Z,971.36
2022-08-29T00:47:16.642Z,971.39
2022-08-29T00:48:16.883Z,971.37
2022-08-29T00:49:17.134Z,971.36
2022-08-29T00:50:17.374Z,971.34
2022-08-29T00:51:17.632Z,971.35
2022-08-29T00:52:17.874Z,971.36
2022-08-29T00:53:18.115Z,971.39
2022-08-29T00:54:18.355Z,971.37
2022-08-29T00:55:18.605Z,971.35
2022-08-29T00:56:19.666Z,971.38
2022-08-29T00:57:19.094Z,971.35
2022-08-29T00:58:19.335Z,971.32
2022-08-29T00:59:19.577Z,971.34
2022-08-29T01:00:19.816Z,971.31
2022-08-29T01:01:20.937Z,971.32
2022-08-29T01:02:20.447Z,971.28
2022-08-29T01:03:20.671Z,971.32
2022-08-29T01:04:23.712Z,971.28
2022-08-29T01:05:21.262Z,971.28
2022-08-29T01:06:21.509Z,971.30
2022-08-29T01:07:21.750Z,971.27
2022-08-29T01:08:21.989Z,971.30
2022-08-29T01:09:22.240Z,971.28
2022-08-29T01:10:22.480Z,971.29
2022-08-29T01:11:24.331Z,971.31
2022-08-29T01:12:23.032Z,971.28
2022-08-29T01:13:23.281Z,971.33
2022-08-29T01:14:23.532Z,971.32
2022-08-29T01:15:23.772Z,971.33
2022-08-29T01:16:24.082Z,971.32
2022-08-29T01:17:24.355Z,971.32
2022-08-29T01:18:24.593Z,971.32
2022-08-29T01:19:24.835Z,971.35
2022-08-29T01:20:25.074Z,971.35
2022-08-29T01:21:25.321Z,971.36
2022-08-29T01:22:25.575Z,971.35
2022-08-29T01:23:25.835Z,971.38
2022-08-29T01:24:26.085Z,971.40
2022-08-29T01:25:26.335Z,971.39
2022-08-29T01:26:26.576Z,971.38
2022-08-29T01:27:27.627Z,971.41
2022-08-29T01:28:27.058Z,971.40
2022-08-29T01:29:27.346Z,971.42
2022-08-29T01:30:27.586Z,971.39
2022-08-29T01:31:42.085Z,971.41
2022-08-29T01:32:29.928Z,971.42
2022-08-29T01:33:28.348Z,971.38
2022-08-29T01:34:28.589Z,971.43
2022-08-29T01:35:28.849Z,971.39
2022-08-29T01:36:29.090Z,971.38
2022-08-29T01:37:29.340Z,971.43
2022-08-29T01:38:29.921Z,971.39
2022-08-29T01:39:29.849Z,971.42
2022-08-29T01:40:30.194Z,971.45
2022-08-29T01:41:30.321Z,971.44
2022-08-29T01:42:31.084Z,971.45
2022-08-29T01:43:32.602Z,971.45
2022-08-29T01:44:31.043Z,971.44
2022-08-29T01:45:31.354Z,971.45
2022-08-29T01:46:31.583Z,971.40
2022-08-29T01:47:31.825Z,971.40
2022-08-29T01:48:32.073Z,971.40
2022-08-29T01:49:32.332Z,971.37
2022-08-29T01:50:32.615Z,971.34
2022-08-29T01:51:32.865Z,971.38
2022-08-29T01:52:33.105Z,971.36
2022-08-29T01:53:33.345Z,971.35
2022-08-29T01:54:33.609Z,971.35
2022-08-29T01:55:33.856Z,971.37
2022-08-29T01:56:34.098Z,971.36
2022-08-29T01:57:34.386Z,971.40
2022-08-29T01:58:34.628Z,971.41
2022-08-29T01:59:35.688Z,971.33
2022-08-29T02:00:35.118Z,971.37
2022-08-29T02:01:35.360Z,971.38
2022-08-29T02:02:35.703Z,971.38
2022-08-29T02:03:35.908Z,971.36
2022-08-29T02:04:37.759Z,971.37
2022-08-29T02:05:36.449Z,971.38
2022-08-29T02:06:36.690Z,971.32
2022-08-29T02:07:36.962Z,971.31
2022-08-29T02:08:37.199Z,971.31
2022-08-29T02:09:37.441Z,971.35
2022-08-29T02:10:39.302Z,971.32
2022-08-29T02:11:37.992Z,971.26
2022-08-29T02:12:38.232Z,971.30
2022-08-29T02:13:38.479Z,971.33
2022-08-29T02:14:38.721Z,971.31
2022-08-29T02:15:38.962Z,971.33
2022-08-29T02:16:40.040Z,971.34
2022-08-29T02:17:39.504Z,971.39
2022-08-29T02:18:39.744Z,971.34
2022-08-29T02:19:39.985Z,971.36
2022-08-29T02:20:40.227Z,971.35
2022-08-29T02:21:41.285Z,971.34
2022-08-29T02:22:40.706Z,971.34
2022-08-29T02:23:40.956Z,971.34
2022-08-29T02:24:41.287Z,971.32
2022-08-29T02:25:41.537Z,971.32
2022-08-29T02:26:42.584Z,971.34
2022-08-29T02:27:42.015Z,971.35
2022-08-29T02:28:42.256Z,971.34
2022-08-29T02:29:42.499Z,971.33
2022-08-29T02:30:42.747Z,971.35
2022-08-29T02:31:43.831Z,971.35
2022-08-29T02:32:43.320Z,971.36
2022-08-29T02:33:43.569Z,971.34
2022-08-29T02:34:44.759Z,971.36
2022-08-29T02:35:44.121Z,971.35
2022-08-29T02:36:45.168Z,971.37
2022-08-29T02:37:44.621Z,971.41
2022-08-29T02:38:44.861Z,971.38
2022-08-29T02:39:45.111Z,971.39
2022-08-29T02:40:45.415Z,971.39
2022-08-29T02:41:45.743Z,971.36
2022-08-29T02:42:45.942Z,971.41
2022-08-29T02:43:46.183Z,971.35
2022-08-29T02:44:46.431Z,971.39
2022-08-29T02:45:46.673Z,971.37
2022-08-29T02:46:47.738Z,971.35
2022-08-29T02:47:47.172Z,971.35
2022-08-29T02:48:49.213Z,971.38
2022-08-29T02:49:48.642Z,971.36
2022-08-29T02:50:47.965Z,971.33
2022-08-29T02:51:48.228Z,971.37
2022-08-29T02:52:48.475Z,971.34
2022-08-29T02:53:48.716Z,971.37
2022-08-29T02:54:48.957Z,971.38
2022-08-29T02:55:49.213Z,971.39
2022-08-29T02:56:49.457Z,971.38
2022-08-29T02:57:49.706Z,971.35
2022-08-29T02:58:49.946Z,971.39
2022-08-29T02:59:50.188Z,971.39
2022-08-29T03:00:50.478Z,971.42
2022-08-29T03:01:51.661Z,971.43
2022-08-29T03:02:51.009Z,971.43
2022-08-29T03:03:51.257Z,971.43
2022-08-29T03:04:51.500Z,971.45
2022-08-29T03:05:51.749Z,971.43
2022-08-29T03:06:52.831Z,971.37
2022-08-29T03:07:52.296Z,971.43
2022-08-29T03:08:54.154Z,971.45
2022-08-29T03:09:52.852Z,971.44
2022-08-29T03:10:53.091Z,971.44
2022-08-29T03:11:53.381Z,971.46
2022-08-29T03:12:53.622Z,971.42
2022-08-29T03:13:54.671Z,971.48
2022-08-29T03:14:54.182Z,971.50
2022-08-29T03:15:54.452Z,971.48
2022-08-29T03:16:55.515Z,971.48
2022-08-29T03:17:54.947Z,971.52
2022-08-29T03:18:55.184Z,971.48
2022-08-29T03:19:55.428Z,971.51
2022-08-29T03:20:55.667Z,971.53
2022-08-29T03:21:55.927Z,971.55
2022-08-29T03:22:56.201Z,971.55
2022-08-29T03:23:56.480Z,971.59
2022-08-29T03:24:56.737Z,971.61
2022-08-29T03:25:56.988Z,971.60
2022-08-29T03:26:57.247Z,971.59
2022-08-29T03:27:57.478Z,971.64
2022-08-29T03:28:57.737Z,971.61
2022-08-29T03:29:57.979Z,971.62
2022-08-29T03:30:58.263Z,971.63
2022-08-29T03:31:59.318Z,971.67
2022-08-29T03:32:58.740Z,971.64
2022-08-29T03:33:58.980Z,971.64
2022-08-29T03:34:59.230Z,971.64
2022-08-29T03:35:59.470Z,971.66
2022-08-29T03:37:00.581Z,971.66
2022-08-29T03:38:00.001Z,971.63
2022-08-29T03:39:00.251Z,971.65
2022-08-29T03:40:00.535Z,971.62
2022-08-29T03:41:00.765Z,971.62
2022-08-29T03:42:01.064Z,971.61
2022-08-29T03:43:01.305Z,971.61
2022-08-29T03:44:01.553Z,971.64
2022-08-29T03:45:01.794Z,971.62
2022-08-29T03:46:02.168Z,971.64
2022-08-29T03:47:03.914Z,971.62
2022-08-29T03:48:02.605Z,971.63
2022-08-29T03:49:02.850Z,971.62
2022-08-29T03:50:03.086Z,971.63
2022-08-29T03:51:03.335Z,971.64
2022-08-29T03:52:03.585Z,971.65
2022-08-29T03:53:04.636Z,971.62
2022-08-29T03:54:04.061Z,971.67
2022-08-29T03:55:04.309Z,971.62
2022-08-29T03:56:04.548Z,971.67
2022-08-29T03:57:04.789Z,971.67
2022-08-29T03:58:05.046Z,971.67
2022-08-29T03:59:05.288Z,971.67
2022-08-29T04:00:05.559Z,971.68
2022-08-29T04:01:05.809Z,971.72
2022-08-29T04:02:06.119Z,971.66
2022-08-29T04:03:07.222Z,971.68
2022-08-29T04:04:06.691Z,971.69
2022-08-29T04:05:08.235Z,971.70
2022-08-29T04:06:07.261Z,971.69
2022-08-29T04:07:07.501Z,971.71
2022-08-29T04:08:08.765Z,971.72
2022-08-29T04:09:08.030Z,971.69
2022-08-29T04:10:08.252Z,971.69
2022-08-29T04:11:08.496Z,971.66
2022-08-29T04:12:08.734Z,971.68
2022-08-29T04:13:09.003Z,971.70
2022-08-29T04:14:09.253Z,971.71
2022-08-29T04:15:09.493Z,971.70
2022-08-29T04:16:09.809Z,971.68
2022-08-29T04:17:10.065Z,971.67
2022-08-29T04:18:11.953Z,971.69
2022-08-29T04:19:10.624Z,971.70
2022-08-29T04:20:10.865Z,971.67
2022-08-29T04:21:11.106Z,971.68
2022-08-29T04:22:11.347Z,971.68
2022-08-29T04:23:11.587Z,971.67
2022-08-29T04:24:11.847Z,971.67
2022-08-29T04:25:12.095Z,971.64
2022-08-29T04:26:34.830Z,971.65
2022-08-29T04:27:13.568Z,971.68
2022-08-29T04:28:12.849Z,971.67
2022-08-29T04:29:13.107Z,971.62
2022-08-29T04:30:13.347Z,971.68
2022-08-29T04:31:13.626Z,971.65
2022-08-29T04:32:13.870Z,971.68
2022-08-29T04:33:17.077Z,971.67
2022-08-29T04:34:16.161Z,971.70
2022-08-29T04:35:14.601Z,971.67
2022-08-29T04:36:15.142Z,971.73
2022-08-29T04:37:15.083Z,971.77
2022-08-29T04:38:15.541Z,971.77
2022-08-29T04:39:15.650Z,971.76
2022-08-29T04:40:16.773Z,971.74
2022-08-29T04:41:16.181Z,971.75
2022-08-29T04:42:20.097Z,971.79
2022-08-29T04:43:16.704Z,971.78
2022-08-29T04:44:16.945Z,971.80
2022-08-29T04:45:17.284Z,971.82
2022-08-29T04:46:23.888Z,971.83
2022-08-29T04:47:18.715Z,971.85
2022-08-29T04:48:18.257Z,971.87
2022-08-29T04:49:18.308Z,971.87
2022-08-29T04:50:19.357Z,971.87
2022-08-29T04:51:18.788Z,971.84
2022-08-29T04:52:19.036Z,971.87
2022-08-29T04:53:19.277Z,971.85
2022-08-29T04:54:19.517Z,971.83
2022-08-29T04:55:22.590Z,971.87
2022-08-29T04:56:20.028Z,971.87
2022-08-29T04:57:20.329Z,971.91
2022-08-29T04:58:20.569Z,971.87
2022-08-29T04:59:20.816Z,971.90
2022-08-29T05:00:21.069Z,971.90
2022-08-29T05:01:21.402Z,971.90
2022-08-29T05:02:21.640Z,971.88
2022-08-29T05:03:21.911Z,971.91
2022-08-29T05:04:23.144Z,971.93
2022-08-29T05:05:23.262Z,971.93
2022-08-29T05:06:22.857Z,971.90
2022-08-29T05:07:22.960Z,971.94
2022-08-29T05:08:23.202Z,971.93
2022-08-29T05:09:23.460Z,971.95
2022-08-29T05:10:24.542Z,971.96
2022-08-29T05:11:23.983Z,971.95
2022-08-29T05:12:24.244Z,971.97
2022-08-29T05:13:24.503Z,971.94
2022-08-29T05:14:24.756Z,971.96
2022-08-29T05:15:25.053Z,971.98
2022-08-29T05:16:25.381Z,971.97
2022-08-29T05:17:25.650Z,971.97
2022-08-29T05:18:26.037Z,971.98
2022-08-29T05:19:26.256Z,972.03
2022-08-29T05:20:28.116Z,971.99
2022-08-29T05:21:26.828Z,971.97
2022-08-29T05:22:27.087Z,971.98
2022-08-29T05:23:27.346Z,972.01
2022-08-29T05:24:27.598Z,972.02
2022-08-29T05:25:27.857Z,971.99
2022-08-29T05:26:28.128Z,972.04
2022-08-29T05:27:28.388Z,971.99
2022-08-29T05:28:28.649Z,971.97
2022-08-29T05:29:28.921Z,971.98
2022-08-29T05:30:34.729Z,971.96
2022-08-29T05:31:30.475Z,972.01
2022-08-29T05:32:29.641Z,971.98
2022-08-29T05:33:29.901Z,971.99
2022-08-29T05:34:34.849Z,972.02
2022-08-29T05:35:31.392Z,972.04
2022-08-29T05:36:30.722Z,972.04
2022-08-29T05:37:30.983Z,972.03
2022-08-29T05:38:31.232Z,972.00
2022-08-29T05:39:31.492Z,972.01
2022-08-29T05:40:31.798Z,971.98
2022-08-29T05:41:32.884Z,972.01
2022-08-29T05:42:33.413Z,971.97
2022-08-29T05:43:32.724Z,971.97
2022-08-29T05:44:35.365Z,971.98
2022-08-29T05:45:33.325Z,971.97
2022-08-29T05:46:33.806Z,971.95
2022-08-29T05:47:33.885Z,971.98
2022-08-29T05:48:34.146Z,971.96
2022-08-29T05:49:34.416Z,971.97
2022-08-29T05:50:34.687Z,972.00
2022-08-29T05:51:38.936Z,972.00
2022-08-29T05:52:35.206Z,972.01
2022-08-29T05:53:35.477Z,971.96
2022-08-29T05:54:35.746Z,971.95
2022-08-29T05:55:36.019Z,971.95
2022-08-29T05:56:36.298Z,971.96
2022-08-29T05:57:36.569Z,971.96
2022-08-29T05:58:36.839Z,971.88
2022-08-29T05:59:37.120Z,971.86
2022-08-29T06:00:37.379Z,971.86
2022-08-29T06:01:37.688Z,971.86
2022-08-29T06:02:38.056Z,971.87
2022-08-29T06:03:39.044Z,971.89
2022-08-29T06:04:38.451Z,971.86
2022-08-29T06:05:38.729Z,971.86
2022-08-29T06:06:39.809Z,971.88
2022-08-29T06:07:39.265Z,971.87
2022-08-29T06:08:39.532Z,971.84
2022-08-29T06:09:39.806Z,971.85
2022-08-29T06:10:40.073Z,971.87
2022-08-29T06:11:41.153Z,971.84
2022-08-29T06:12:40.615Z,971.87
2022-08-29T06:13:40.884Z,971.89
2022-08-29T06:14:41.163Z,971.86
2022-08-29T06:15:41.478Z,971.88
2022-08-29T06:16:41.779Z,971.91
2022-08-29T06:17:42.046Z,971.93
2022-08-29T06:18:42.325Z,971.91
2022-08-29T06:19:42.646Z,971.90
2022-08-29T06:20:42.927Z,971.88
2022-08-29T06:21:44.021Z,971.93
2022-08-29T06:22:43.475Z,971.90
2022-08-29T06:23:43.758Z,971.88
2022-08-29T06:24:44.530Z,971.90
2022-08-29T06:25:44.298Z,971.91
2022-08-29T06:26:44.579Z,971.90
2022-08-29T06:27:44.857Z,971.94
2022-08-29T06:28:46.080Z,971.94
2022-08-29T06:29:45.412Z,971.94
2022-08-29T06:30:45.730Z,971.97
2022-08-29T06:31:46.034Z,971.94
2022-08-29T06:32:46.313Z,971.98
2022-08-29T06:33:46.602Z,971.97
2022-08-29T06:34:46.872Z,971.98
2022-08-29T06:35:47.142Z,971.94
2022-08-29T06:36:48.222Z,971.97
2022-08-29T06:37:47.687Z,971.94
2022-08-29T06:38:47.983Z,971.93
2022-08-29T06:39:48.254Z,971.96
2022-08-29T06:40:48.524Z,971.92
2022-08-29T06:41:49.615Z,971.95
2022-08-29T06:42:49.064Z,971.92
2022-08-29T06:43:49.345Z,971.92
2022-08-29T06:44:49.616Z,971.89
2022-08-29T06:45:49.934Z,971.92
2022-08-29T06:46:50.274Z,971.92
2022-08-29T06:47:50.496Z,971.90
2022-08-29T06:48:50.773Z,971.89
2022-08-29T06:49:51.037Z,971.93
2022-08-29T06:50:51.317Z,971.93
2022-08-29T06:51:56.964Z,971.92
2022-08-29T06:52:52.940Z,971.92
2022-08-29T06:53:52.167Z,971.95
2022-08-29T06:54:52.840Z,971.93
2022-08-29T06:55:52.676Z,972.01
2022-08-29T06:56:52.920Z,971.98
2022-08-29T06:57:53.189Z,972.02
2022-08-29T06:58:53.459Z,972.02
2022-08-29T06:59:53.739Z,972.01
2022-08-29T07:00:54.020Z,972.06
2022-08-29T07:01:54.344Z,972.02
2022-08-29T07:02:54.624Z,972.06
2022-08-29T07:03:54.882Z,972.06
2022-08-29T07:04:55.152Z,972.05
2022-08-29T07:05:55.449Z,972.02
2022-08-29T07:06:56.552Z,972.05
2022-08-29T07:07:56.032Z,972.02
2022-08-29T07:08:56.591Z,972.08
2022-08-29T07:09:56.544Z,972.08
2022-08-29T07:10:56.815Z,972.09
2022-08-29T07:11:57.902Z,972.09
2022-08-29T07:12:57.354Z,972.10
2022-08-29T07:13:57.633Z,972.10
2022-08-29T07:14:58.856Z,972.11
2022-08-29T07:15:58.243Z,972.13
2022-08-29T07:16:58.534Z,972.14
2022-08-29T07:18:00.108Z,972.16
2022-08-29T07:18:59.076Z,972.14
2022-08-29T07:19:59.346Z,972.17
2022-08-29T07:20:59.625Z,972.17
2022-08-29T07:22:00.717Z,972.17
2022-08-29T07:23:00.176Z,972.16
2022-08-29T07:24:00.448Z,972.17
2022-08-29T07:25:00.742Z,972.15
2022-08-29T07:26:01.009Z,972.18
2022-08-29T07:27:01.289Z,972.20
2022-08-29T07:28:01.559Z,972.17
2022-08-29T07:29:03.065Z,972.19
2022-08-29T07:30:02.181Z,972.19
2022-08-29T07:31:02.610Z,972.23
2022-08-29T07:32:02.779Z,972.22
2022-08-29T07:33:03.031Z,972.24
2022-08-29T07:34:03.453Z,972.24
2022-08-29T07:35:03.597Z,972.25
2022-08-29T07:36:03.872Z,972.21
2022-08-29T07:37:06.143Z,972.22
2022-08-29T07:38:04.393Z,972.23
2022-08-29T07:39:04.672Z,972.24
2022-08-29T07:40:04.975Z,972.28
2022-08-29T07:41:05.254Z,972.26
2022-08-29T07:42:05.525Z,972.26
2022-08-29T07:43:06.614Z,972.28
2022-08-29T07:44:06.073Z,972.29
2022-08-29T07:45:06.345Z,972.28
2022-08-29T07:46:06.700Z,972.26
2022-08-29T07:47:06.867Z,972.29
2022-08-29T07:48:10.193Z,972.29
2022-08-29T07:49:07.387Z,972.30
2022-08-29T07:50:07.668Z,972.29
2022-08-29T07:51:10.514Z,972.32
2022-08-29T07:52:08.217Z,972.32
2022-08-29T07:53:08.576Z,972.33
2022-08-29T07:54:08.839Z,972.32
2022-08-29T07:55:09.109Z,972.33
2022-08-29T07:56:09.390Z,972.34
2022-08-29T07:57:09.669Z,972.30
2022-08-29T07:58:09.939Z,972.34
2022-08-29T07:59:10.239Z,972.34
2022-08-29T08:00:10.530Z,972.33
2022-08-29T08:01:14.867Z,972.32
2022-08-29T08:02:12.194Z,972.33
2022-08-29T08:03:11.410Z,972.28
2022-08-29T08:04:11.723Z,972.31
2022-08-29T08:05:11.992Z,972.29
2022-08-29T08:06:12.273Z,972.31
2022-08-29T08:07:14.004Z,972.30
2022-08-29T08:08:14.942Z,972.28
2022-08-29T08:09:13.221Z,972.26
2022-08-29T08:10:13.494Z,972.25
2022-08-29T08:11:13.783Z,972.26
2022-08-29T08:12:14.055Z,972.33
2022-08-29T08:13:14.422Z,972.29
2022-08-29T08:14:15.475Z,972.32
2022-08-29T08:15:14.945Z,972.29
2022-08-29T08:16:15.263Z,972.32
2022-08-29T08:17:15.554Z,972.34
2022-08-29T08:18:15.908Z,972.32
2022-08-29T08:19:16.208Z,972.33
2022-08-29T08:20:16.481Z,972.35
2022-08-29T08:21:16.747Z,972.31
2022-08-29T08:22:17.030Z,972.36
2022-08-29T08:23:17.433Z,972.31
2022-08-29T08:24:19.780Z,972.34
2022-08-29T08:25:17.898Z,972.36
2022-08-29T08:26:19.149Z,972.36
2022-08-29T08:27:18.479Z,972.39
2022-08-29T08:28:18.754Z,972.43
2022-08-29T08:29:19.121Z,972.35
2022-08-29T08:30:19.340Z,972.37
2022-08-29T08:31:19.777Z,972.39
2022-08-29T08:32:19.950Z,972.40
2022-08-29T08:33:20.249Z,972.41
2022-08-29T08:34:20.541Z,972.35
2022-08-29T08:35:23.022Z,972.44
2022-08-29T08:36:21.065Z,972.39
2022-08-29T08:37:27.872Z,972.41
2022-08-29T08:38:22.584Z,972.43
2022-08-29T08:39:22.744Z,972.43
2022-08-29T08:40:22.253Z,972.41
2022-08-29T08:41:26.922Z,972.42
2022-08-29T08:42:24.884Z,972.41
2022-08-29T10:48:41.600Z,972.20
2022-08-29T10:49:44.825Z,972.21
2022-08-29T10:50:44.963Z,972.19
2022-08-29T10:51:42.470Z,972.17
2022-08-29T10:52:42.770Z,972.17
2022-08-29T10:53:43.041Z,972.18
2022-08-29T10:54:43.301Z,972.15
2022-08-29T10:55:43.551Z,972.16
2022-08-29T10:56:43.809Z,972.14
2022-08-29T10:57:44.239Z,972.15
2022-08-29T10:58:44.352Z,972.09
2022-08-29T10:59:44.679Z,972.10
2022-08-29T11:00:44.974Z,972.09
2022-08-29T11:01:45.300Z,972.14
2022-08-29T11:02:45.553Z,972.07
2022-08-29T11:03:45.852Z,972.05
2022-08-29T11:04:46.094Z,972.07
2022-08-29T11:05:46.383Z,972.04
2022-08-29T11:06:46.646Z,972.02
2022-08-29T11:07:46.902Z,972.01
2022-08-29T11:08:47.155Z,972.03
2022-08-29T11:09:47.413Z,972.03
2022-08-29T11:10:47.673Z,972.04
2022-08-29T11:11:47.926Z,972.04
2022-08-29T11:12:48.184Z,972.08
2022-08-29T11:13:48.486Z,972.09
2022-08-29T11:14:48.737Z,972.08
2022-08-29T11:15:48.987Z,971.99
2022-08-29T11:16:49.249Z,972.02
2022-08-29T11:17:49.521Z,972.03
2022-08-29T11:18:49.779Z,972.02
2022-08-29T11:19:50.049Z,972.01
2022-08-29T11:20:50.300Z,972.05
2022-08-29T11:21:50.551Z,972.04
2022-08-29T11:22:50.820Z,972.00
2022-08-29T11:23:51.072Z,971.98
2022-08-29T11:24:51.321Z,971.95
2022-08-29T11:25:51.570Z,971.98
2022-08-29T11:26:51.832Z,972.01
2022-08-29T11:27:54.054Z,971.96
2022-08-29T11:28:52.390Z,971.98
2022-08-29T11:29:52.653Z,971.93
2022-08-29T11:30:52.903Z,971.96
2022-08-29T11:31:53.243Z,971.94
2022-08-29T11:32:53.493Z,971.92
2022-08-29T11:33:53.764Z,971.91
2022-08-29T11:34:54.046Z,971.90
2022-08-29T11:35:54.314Z,971.88
2022-08-29T11:36:54.596Z,971.89
2022-08-29T11:37:54.845Z,971.91
2022-08-29T11:38:55.146Z,971.89
2022-08-29T11:39:55.459Z,971.90
2022-08-29T11:41:58.568Z,971.91
2022-08-29T11:42:56.248Z,971.92
2022-08-29T11:43:56.496Z,971.88
2022-08-29T11:44:56.747Z,971.90
2022-08-29T11:45:56.998Z,971.88
2022-08-29T11:47:02.665Z,971.86
2022-08-29T11:47:57.569Z,971.83
2022-08-29T11:48:59.795Z,971.84
2022-08-29T11:49:58.050Z,971.83
2022-08-29T11:50:58.312Z,971.86
2022-08-29T11:51:58.580Z,971.83
2022-08-29T11:52:58.831Z,971.83
2022-08-29T11:53:59.081Z,971.84
2022-08-29T11:54:59.421Z,971.84
2022-08-29T11:55:59.680Z,971.83
2022-08-29T11:56:59.933Z,971.85
2022-08-29T11:58:04.239Z,971.87
2022-08-29T11:59:01.434Z,971.86
2022-08-29T12:00:00.744Z,971.82
2022-08-29T12:01:00.997Z,971.83
2022-08-29T12:02:01.264Z,971.81
2022-08-29T12:03:04.379Z,971.86
2022-08-29T12:04:02.763Z,971.84
2022-08-29T12:05:02.102Z,971.78
2022-08-29T12:06:02.357Z,971.79
2022-08-29T12:07:02.610Z,971.79
2022-08-29T12:08:14.494Z,971.79
2022-08-29T12:09:05.847Z,971.78
2022-08-29T12:10:03.510Z,971.82
2022-08-29T12:11:03.746Z,971.78
2022-08-29T12:12:04.006Z,971.84
2022-08-29T12:13:04.267Z,971.78
2022-08-29T12:14:04.664Z,971.72
2022-08-29T12:15:04.847Z,971.73
2022-08-29T12:16:05.144Z,971.69
2022-08-29T12:17:05.419Z,971.71
2022-08-29T12:18:05.661Z,971.67
2022-08-29T12:19:05.914Z,971.69
2022-08-29T12:20:06.171Z,971.69
2022-08-29T12:21:06.427Z,971.67
2022-08-29T12:22:06.684Z,971.66
2022-08-29T12:23:07.946Z,971.65
2022-08-29T12:24:07.274Z,971.63
2022-08-29T12:25:07.520Z,971.64
2022-08-29T12:26:22.061Z,971.64
2022-08-29T12:27:11.833Z,971.59
2022-08-29T12:28:09.299Z,971.61
2022-08-29T12:29:10.506Z,971.56
2022-08-29T12:30:08.827Z,971.53
2022-08-29T12:31:09.120Z,971.53
2022-08-29T12:32:22.839Z,971.55
2022-08-29T12:33:10.592Z,971.58
2022-08-29T12:34:09.865Z,971.53
2022-08-29T12:35:11.153Z,971.49
2022-08-29T12:36:10.376Z,971.51
2022-08-29T12:37:10.677Z,971.48
2022-08-29T12:38:10.925Z,971.48
2022-08-29T13:45:05.328Z,971.28
2022-08-29T13:46:05.613Z,971.26
2022-08-29T13:47:05.847Z,971.29
2022-08-29T13:48:06.088Z,971.25
2022-08-29T13:49:06.338Z,971.24
2022-08-29T13:50:06.589Z,971.24
2022-08-29T13:51:06.967Z,971.22
2022-08-29T13:52:07.159Z,971.24
2022-08-29T13:53:07.413Z,971.23
2022-08-29T13:54:07.660Z,971.18
2022-08-29T13:55:07.918Z,971.19
2022-08-29T13:56:08.161Z,971.20
2022-08-29T13:57:08.412Z,971.20
2022-08-29T13:58:08.729Z,971.24
2022-08-29T13:59:08.982Z,971.22
2022-08-29T14:00:09.233Z,971.24
2022-08-29T14:02:11.581Z,971.19
2022-08-29T14:03:10.090Z,971.20
2022-08-29T14:04:34.512Z,971.20
2022-08-29T14:05:11.496Z,971.17
2022-08-29T14:06:10.792Z,971.18
2022-08-29T14:07:11.043Z,971.13
2022-08-29T14:08:11.298Z,971.16
2022-08-29T14:09:11.545Z,971.14
2022-08-29T14:10:11.796Z,971.13
2022-08-29T14:11:12.056Z,971.14
2022-08-29T14:12:12.316Z,971.16
2022-08-29T14:13:12.575Z,971.09
2022-08-29T14:14:12.827Z,971.09
2022-08-29T14:15:13.088Z,971.15
2022-08-29T14:16:13.379Z,971.09
2022-08-29T14:17:18.188Z,971.10
2022-08-29T14:18:14.996Z,971.08
2022-08-29T14:19:14.149Z,971.06
2022-08-29T14:20:14.399Z,971.03
2022-08-29T14:21:14.658Z,971.06
2022-08-29T14:22:14.909Z,971.08
2022-08-29T14:23:15.159Z,971.05
2022-08-29T14:24:15.430Z,971.08
2022-08-29T14:25:15.681Z,971.09
2022-08-29T14:26:15.931Z,971.07
2022-08-29T14:27:16.191Z,971.00
2022-08-29T14:28:16.765Z,971.04
2022-08-29T14:29:16.712Z,971.03
2022-08-29T14:30:16.962Z,971.03
2022-08-29T14:31:17.264Z,971.02
2022-08-29T14:32:17.534Z,971.03
2022-08-29T14:33:20.165Z,971.05
2022-08-29T14:34:18.125Z,971.02
2022-08-29T14:35:25.923Z,971.02
2022-08-29T14:36:19.683Z,971.01
2022-08-29T14:37:19.958Z,971.00
2022-08-29T14:38:19.312Z,970.99
2022-08-29T14:39:19.538Z,971.01
2022-08-29T14:40:21.670Z,971.00
2022-08-29T14:41:20.086Z,970.96
2022-08-29T14:42:20.337Z,970.97
2022-08-29T14:43:20.586Z,970.98
2022-08-29T14:44:20.965Z,970.99
2022-08-29T14:45:21.159Z,970.96
2022-08-29T14:46:21.463Z,970.90
2022-08-29T14:47:21.687Z,970.93
2022-08-29T14:48:21.938Z,970.95
2022-08-29T14:49:22.191Z,970.94
2022-08-29T14:50:22.439Z,970.92
2022-08-29T14:51:22.691Z,970.92
2022-08-29T14:52:22.939Z,970.92
2022-08-29T14:53:23.189Z,970.95
2022-08-29T14:54:23.450Z,970.96
2022-08-29T14:55:23.701Z,970.96
2022-08-29T14:56:44.717Z,970.94
2022-08-29T14:57:25.189Z,970.98
2022-08-29T14:58:24.501Z,970.94
2022-08-29T14:59:24.761Z,970.96
2022-08-29T15:00:25.014Z,970.96
2022-08-29T15:01:25.298Z,971.02
2022-08-29T15:02:25.559Z,970.99
2022-08-29T15:03:25.793Z,970.97
2022-08-29T15:04:34.942Z,971.00
2022-08-29T15:05:27.303Z,971.01
2022-08-29T15:06:26.614Z,971.01
2022-08-29T15:07:26.875Z,971.05
2022-08-29T15:08:27.165Z,970.97
2022-08-29T15:09:27.424Z,970.99
2022-08-29T15:10:27.665Z,970.97
2022-08-29T15:11:27.923Z,970.96
2022-08-29T15:12:28.178Z,970.97
2022-08-29T15:13:28.426Z,970.99
2022-08-29T15:14:28.687Z,970.98
2022-08-29T15:15:29.059Z,970.90
2022-08-29T15:16:29.208Z,970.89
2022-08-29T15:17:29.457Z,970.93
2022-08-29T15:19:00.955Z,970.90
2022-08-29T15:20:17.806Z,970.93
2022-08-29T15:20:36.386Z,970.87
2022-08-29T15:21:31.500Z,970.85
2022-08-29T15:22:30.819Z,970.89
2022-08-29T15:23:31.070Z,970.86
2022-08-29T15:24:31.327Z,970.89
2022-08-29T15:25:31.572Z,970.86
2022-08-29T15:26:31.831Z,970.90
2022-08-29T15:27:32.082Z,970.88
2022-08-29T15:28:32.331Z,970.88
2022-08-29T15:29:32.592Z,970.87
2022-08-29T15:30:32.851Z,970.88
2022-08-29T15:31:33.220Z,970.86
2022-08-29T15:32:33.358Z,970.90
2022-08-29T15:33:33.611Z,970.86
2022-08-29T15:34:33.863Z,970.88
2022-08-29T15:35:34.115Z,970.88
2022-08-29T15:36:34.372Z,970.87
2022-08-29T15:37:34.624Z,970.84
2022-08-29T15:38:34.884Z,970.89
2022-08-29T15:39:35.137Z,970.85
2022-08-29T15:40:35.459Z,970.90
2022-08-29T15:41:35.685Z,970.89
2022-08-29T15:42:35.935Z,970.88
2022-08-29T15:43:36.188Z,970.89
2022-08-29T15:44:36.449Z,970.91